createdAt,value
2017-09-16T00:00:28.717Z,10.35
2017-09-16T00:01:28.711Z,10.38
2017-09-16T00:02:28.707Z,10.34
2017-09-16T00:03:28.701Z,10.34
2017-09-16T00:04:28.695Z,10.38
2017-09-16T00:05:28.691Z,10.49
2017-09-16T00:06:28.686Z,10.49
2017-09-16T00:07:28.680Z,10.47
2017-09-16T00:08:28.675Z,10.46
2017-09-16T00:09:28.670Z,10.42
2017-09-16T00:10:28.664Z,10.42
2017-09-16T00:11:28.659Z,10.51
2017-09-16T00:12:28.653Z,10.29
2017-09-16T00:13:28.649Z,10.35
2017-09-16T00:14:28.644Z,10.34
2017-09-16T00:15:28.638Z,10.28
2017-09-16T00:16:28.632Z,10.28
2017-09-16T00:17:28.628Z,10.20
2017-09-16T00:18:28.624Z,10.22
2017-09-16T00:19:28.620Z,10.20
2017-09-16T00:20:28.612Z,10.17
2017-09-16T00:21:28.606Z,10.24
2017-09-16T00:22:28.601Z,10.24
2017-09-16T00:23:28.595Z,10.26
2017-09-16T00:24:28.590Z,10.18
2017-09-16T00:25:28.586Z,10.18
2017-09-16T00:26:28.580Z,10.24
2017-09-16T00:27:28.575Z,10.28
2017-09-16T00:28:28.570Z,10.24
2017-09-16T00:29:28.566Z,10.20
2017-09-16T00:30:28.561Z,10.18
2017-09-16T00:31:28.554Z,10.18
2017-09-16T00:32:28.548Z,10.35
2017-09-16T00:33:28.545Z,10.24
2017-09-16T00:34:28.540Z,10.26
2017-09-16T00:35:28.532Z,10.29
2017-09-16T00:36:28.528Z,10.36
2017-09-16T00:37:28.524Z,10.36
2017-09-16T00:38:28.518Z,10.34
2017-09-16T00:39:28.514Z,10.39
2017-09-16T00:40:28.507Z,10.24
2017-09-16T00:41:28.503Z,10.22
2017-09-16T00:42:28.497Z,10.20
2017-09-16T00:43:28.494Z,10.26
2017-09-16T00:44:28.487Z,10.28
2017-09-16T00:45:28.481Z,10.25
2017-09-16T00:46:28.479Z,10.25
2017-09-16T00:47:28.469Z,10.25
2017-09-16T00:48:28.466Z,10.24
2017-09-16T00:49:28.461Z,10.18
2017-09-16T00:50:28.454Z,10.26
2017-09-16T00:51:28.450Z,10.20
2017-09-16T00:52:28.445Z,10.16
2017-09-16T00:53:28.442Z,10.16
2017-09-16T00:54:28.435Z,10.28
2017-09-16T00:55:28.429Z,10.18
2017-09-16T00:56:28.424Z,10.26
2017-09-16T00:57:28.419Z,10.25
2017-09-16T00:58:28.414Z,10.28
2017-09-16T00:59:28.407Z,10.25
2017-09-16T01:00:28.403Z,10.20
2017-09-16T01:01:28.398Z,10.25
2017-09-16T01:02:28.393Z,10.29
2017-09-16T01:03:28.387Z,10.20
2017-09-16T01:04:28.385Z,10.25
2017-09-16T01:05:28.376Z,10.24
2017-09-16T01:06:28.372Z,10.22
2017-09-16T01:07:28.366Z,10.29
2017-09-16T01:08:28.361Z,10.36
2017-09-16T01:09:28.355Z,10.39
2017-09-16T01:10:28.350Z,10.34
2017-09-16T01:11:28.345Z,10.36
2017-09-16T01:12:28.339Z,10.24
2017-09-16T01:13:28.335Z,10.26
2017-09-16T01:14:28.330Z,10.25
2017-09-16T01:15:28.323Z,10.24
2017-09-16T01:16:28.318Z,10.26
2017-09-16T01:17:28.314Z,10.22
2017-09-16T01:18:28.307Z,10.13
2017-09-16T01:19:28.303Z,10.18
2017-09-16T01:20:28.295Z,10.11
2017-09-16T01:21:28.291Z,10.11
2017-09-16T01:22:28.285Z,10.26
2017-09-16T01:23:28.281Z,10.16
2017-09-16T01:24:28.275Z,10.22
2017-09-16T01:25:28.271Z,10.13
2017-09-16T01:26:28.265Z,10.17
2017-09-16T01:27:28.258Z,10.14
2017-09-16T01:28:28.255Z,10.10
2017-09-16T01:29:28.249Z,10.13
2017-09-16T01:30:28.244Z,10.11
2017-09-16T01:31:28.237Z,10.09
2017-09-16T01:32:28.233Z,10.07
2017-09-16T01:33:28.228Z,10.01
2017-09-16T01:34:28.222Z,9.98
2017-09-16T01:35:28.217Z,9.95
2017-09-16T01:36:28.211Z,10.04
2017-09-16T01:37:28.206Z,9.91
2017-09-16T01:38:28.200Z,10.02
2017-09-16T01:39:28.194Z,9.98
2017-09-16T01:40:28.189Z,9.96
2017-09-16T01:41:28.185Z,10.07
2017-09-16T01:42:28.179Z,10.10
2017-09-16T01:43:28.173Z,10.10
2017-09-16T01:44:28.166Z,10.09
2017-09-16T01:45:28.162Z,10.14
2017-09-16T01:46:28.158Z,10.11
2017-09-16T01:47:28.151Z,10.07
2017-09-16T01:48:28.146Z,10.13
2017-09-16T01:49:28.141Z,9.99
2017-09-16T01:50:28.136Z,9.96
2017-09-16T01:51:28.129Z,9.98
2017-09-16T01:52:28.124Z,10.09
2017-09-16T01:53:28.119Z,9.99
2017-09-16T01:54:28.114Z,9.98
2017-09-16T01:55:28.107Z,9.96
2017-09-16T01:56:28.101Z,9.99
2017-09-16T01:57:28.095Z,9.95
2017-09-16T01:58:28.092Z,9.93
2017-09-16T01:59:28.084Z,9.89
2017-09-16T02:00:28.080Z,9.75
2017-09-16T02:01:28.075Z,9.85
2017-09-16T02:02:28.069Z,9.86
2017-09-16T02:03:28.064Z,9.78
2017-09-16T02:04:28.058Z,9.96
2017-09-16T02:05:28.052Z,9.85
2017-09-16T02:06:28.048Z,9.93
2017-09-16T02:07:28.040Z,9.88
2017-09-16T02:08:28.035Z,9.85
2017-09-16T02:09:28.030Z,9.93
2017-09-16T02:10:28.026Z,9.85
2017-09-16T02:11:28.018Z,9.85
2017-09-16T02:12:28.014Z,9.89
2017-09-16T02:13:28.008Z,9.78
2017-09-16T02:14:28.003Z,9.89
2017-09-16T02:15:27.997Z,9.74
2017-09-16T02:16:27.990Z,9.86
2017-09-16T02:17:27.985Z,9.83
2017-09-16T02:18:27.983Z,9.85
2017-09-16T02:19:27.973Z,9.81
2017-09-16T02:20:27.968Z,9.81
2017-09-16T02:21:27.964Z,9.75
2017-09-16T02:22:27.957Z,9.89
2017-09-16T02:23:27.952Z,9.85
2017-09-16T02:24:27.950Z,9.74
2017-09-16T02:25:27.940Z,9.74
2017-09-16T02:26:27.938Z,9.75
2017-09-16T02:27:27.928Z,9.68
2017-09-16T02:28:27.923Z,9.77
2017-09-16T02:29:27.918Z,9.77
2017-09-16T02:30:27.913Z,9.77
2017-09-16T02:31:27.905Z,9.77
2017-09-16T02:32:27.901Z,9.75
2017-09-16T02:33:27.895Z,9.74
2017-09-16T02:34:27.892Z,9.78
2017-09-16T02:35:27.884Z,9.77
2017-09-16T02:36:27.879Z,9.71
2017-09-16T02:37:27.872Z,9.80
2017-09-16T02:38:27.865Z,9.77
2017-09-16T02:39:27.861Z,9.78
2017-09-16T02:40:27.856Z,9.81
2017-09-16T02:41:27.848Z,9.80
2017-09-16T02:42:27.878Z,9.74
2017-09-16T02:43:27.838Z,9.75
2017-09-16T02:44:27.831Z,9.80
2017-09-16T02:45:27.827Z,9.75
2017-09-16T02:46:27.821Z,9.80
2017-09-16T02:47:27.814Z,9.75
2017-09-16T02:48:27.811Z,9.81
2017-09-16T02:49:27.806Z,9.80
2017-09-16T02:50:27.798Z,9.80
2017-09-16T02:51:27.793Z,9.77
2017-09-16T02:52:27.787Z,9.93
2017-09-16T02:53:27.784Z,9.91
2017-09-16T02:54:27.776Z,9.95
2017-09-16T02:55:27.768Z,9.98
2017-09-16T02:56:27.765Z,10.02
2017-09-16T02:57:27.760Z,9.93
2017-09-16T02:58:27.752Z,10.02
2017-09-16T02:59:27.757Z,9.89
2017-09-16T03:00:27.741Z,9.96
2017-09-16T03:01:27.734Z,10.01
2017-09-16T03:02:27.729Z,10.02
2017-09-16T03:03:27.723Z,9.99
2017-09-16T03:04:27.718Z,10.10
2017-09-16T03:05:27.713Z,9.99
2017-09-16T03:06:27.707Z,10.06
2017-09-16T03:07:27.701Z,10.01
2017-09-16T03:08:27.693Z,9.96
2017-09-16T03:09:27.688Z,9.99
2017-09-16T03:10:27.684Z,9.98
2017-09-16T03:11:27.680Z,9.98
2017-09-16T03:12:27.671Z,9.92
2017-09-16T03:13:27.666Z,9.99
2017-09-16T03:14:27.668Z,9.93
2017-09-16T03:15:27.654Z,9.98
2017-09-16T03:16:27.648Z,9.98
2017-09-16T03:17:27.643Z,9.93
2017-09-16T03:18:27.637Z,9.93
2017-09-16T03:19:27.631Z,9.92
2017-09-16T03:20:27.626Z,9.83
2017-09-16T03:21:27.620Z,9.91
2017-09-16T03:22:27.614Z,9.83
2017-09-16T03:23:27.609Z,9.75
2017-09-16T03:24:27.601Z,9.77
2017-09-16T03:25:27.596Z,9.83
2017-09-16T03:26:27.590Z,9.92
2017-09-16T03:27:27.584Z,9.92
2017-09-16T03:28:27.579Z,9.86
2017-09-16T03:29:27.574Z,9.89
2017-09-16T03:30:27.570Z,9.80
2017-09-16T03:31:27.569Z,9.75
2017-09-16T03:32:27.555Z,9.75
2017-09-16T03:33:27.552Z,9.75
2017-09-16T03:34:27.545Z,9.74
2017-09-16T03:35:27.538Z,9.71
2017-09-16T03:36:27.533Z,9.73
2017-09-16T03:37:27.528Z,9.73
2017-09-16T03:38:27.522Z,9.71
2017-09-16T03:39:27.516Z,9.65
2017-09-16T03:40:27.511Z,9.60
2017-09-16T03:41:27.504Z,9.63
2017-09-16T03:42:27.500Z,9.55
2017-09-16T03:43:27.493Z,9.59
2017-09-16T03:44:27.487Z,9.53
2017-09-16T03:45:27.482Z,9.53
2017-09-16T03:46:27.476Z,9.58
2017-09-16T03:47:27.470Z,9.49
2017-09-16T03:48:27.463Z,9.53
2017-09-16T03:49:27.459Z,9.55
2017-09-16T03:50:27.455Z,9.49
2017-09-16T03:51:27.445Z,9.52
2017-09-16T03:52:27.443Z,9.55
2017-09-16T03:53:27.435Z,9.55
2017-09-16T03:54:27.430Z,9.53
2017-09-16T03:55:27.424Z,9.48
2017-09-16T03:56:27.417Z,9.53
2017-09-16T03:57:27.411Z,9.50
2017-09-16T03:58:27.407Z,9.53
2017-09-16T03:59:27.399Z,9.52
2017-09-16T04:00:27.395Z,9.48
2017-09-16T04:01:27.389Z,9.42
2017-09-16T04:02:27.382Z,9.48
2017-09-16T04:03:27.377Z,9.41
2017-09-16T04:04:27.370Z,9.49
2017-09-16T04:05:27.365Z,9.41
2017-09-16T04:06:27.360Z,9.38
2017-09-16T04:07:27.352Z,9.48
2017-09-16T04:08:27.348Z,9.44
2017-09-16T04:09:27.343Z,9.58
2017-09-16T04:10:27.336Z,9.49
2017-09-16T04:11:27.330Z,9.45
2017-09-16T04:12:27.323Z,9.53
2017-09-16T04:13:27.318Z,9.38
2017-09-16T04:14:27.313Z,9.50
2017-09-16T04:15:27.305Z,9.44
2017-09-16T04:16:27.301Z,9.42
2017-09-16T04:17:27.297Z,9.45
2017-09-16T04:18:27.290Z,9.49
2017-09-16T04:19:27.284Z,9.45
2017-09-16T04:20:27.277Z,9.48
2017-09-16T04:21:27.275Z,9.41
2017-09-16T04:22:27.266Z,9.49
2017-09-16T04:23:27.260Z,9.44
2017-09-16T04:24:27.254Z,9.44
2017-09-16T04:25:27.251Z,9.35
2017-09-16T04:26:27.243Z,9.30
2017-09-16T04:27:27.236Z,9.31
2017-09-16T04:28:27.230Z,9.27
2017-09-16T04:29:27.224Z,9.26
2017-09-16T04:30:27.219Z,9.17
2017-09-16T04:31:27.212Z,9.17
2017-09-16T04:32:27.210Z,9.12
2017-09-16T04:33:27.201Z,9.08
2017-09-16T04:34:27.195Z,9.06
2017-09-16T04:35:27.188Z,9.01
2017-09-16T04:36:27.183Z,9.03
2017-09-16T04:37:27.176Z,8.93
2017-09-16T04:38:27.172Z,8.80
2017-09-16T04:39:27.163Z,8.83
2017-09-16T04:40:27.160Z,8.82
2017-09-16T04:41:27.153Z,8.82
2017-09-16T04:42:27.147Z,8.75
2017-09-16T04:43:27.141Z,8.79
2017-09-16T04:44:27.133Z,8.76
2017-09-16T04:45:27.127Z,8.75
2017-09-16T04:46:27.123Z,8.80
2017-09-16T04:47:27.116Z,8.83
2017-09-16T04:48:27.110Z,8.76
2017-09-16T04:49:27.105Z,8.82
2017-09-16T04:50:27.099Z,8.83
2017-09-16T04:51:27.093Z,8.82
2017-09-16T04:52:27.086Z,8.86
2017-09-16T04:53:27.081Z,8.96
2017-09-16T04:54:27.075Z,9.00
2017-09-16T04:55:27.068Z,9.15
2017-09-16T04:56:27.061Z,9.04
2017-09-16T04:57:27.056Z,9.16
2017-09-16T04:58:27.055Z,9.20
2017-09-16T04:59:27.043Z,9.20
2017-09-16T05:00:27.039Z,9.17
2017-09-16T05:01:27.032Z,9.24
2017-09-16T05:02:27.027Z,9.17
2017-09-16T05:03:27.025Z,9.16
2017-09-16T05:04:27.014Z,9.22
2017-09-16T05:05:27.015Z,9.32
2017-09-16T05:06:27.004Z,9.27
2017-09-16T05:07:26.997Z,9.42
2017-09-16T05:08:26.991Z,9.49
2017-09-16T05:09:26.985Z,9.45
2017-09-16T05:10:26.979Z,9.41
2017-09-16T05:11:26.972Z,9.41
2017-09-16T05:12:26.967Z,9.38
2017-09-16T05:13:26.961Z,9.45
2017-09-16T05:14:26.957Z,9.38
2017-09-16T05:15:26.950Z,9.41
2017-09-16T05:16:26.943Z,9.40
2017-09-16T05:17:26.938Z,9.35
2017-09-16T05:18:26.933Z,9.40
2017-09-16T05:19:26.933Z,9.45
2017-09-16T05:20:26.921Z,9.41
2017-09-16T05:21:26.915Z,9.44
2017-09-16T05:22:26.909Z,9.41
2017-09-16T05:23:26.903Z,9.49
2017-09-16T05:24:26.900Z,9.49
2017-09-16T05:25:26.892Z,9.50
2017-09-16T05:26:26.886Z,9.44
2017-09-16T05:27:26.879Z,9.52
2017-09-16T05:28:26.875Z,9.59
2017-09-16T05:29:26.868Z,9.59
2017-09-16T05:30:26.862Z,9.60
2017-09-16T05:31:26.857Z,9.58
2017-09-16T05:32:26.850Z,9.49
2017-09-16T05:33:26.845Z,9.59
2017-09-16T05:34:26.841Z,9.63
2017-09-16T05:35:26.832Z,9.59
2017-09-16T05:36:26.827Z,9.65
2017-09-16T05:37:26.821Z,9.71
2017-09-16T05:38:26.816Z,9.89
2017-09-16T05:39:26.809Z,10.11
2017-09-16T05:40:26.804Z,10.31
2017-09-16T05:41:26.797Z,10.36
2017-09-16T05:42:26.793Z,10.17
2017-09-16T05:43:26.785Z,10.20
2017-09-16T05:44:26.782Z,10.49
2017-09-16T05:45:26.775Z,10.43
2017-09-16T05:46:26.770Z,10.70
2017-09-16T05:47:26.764Z,10.95
2017-09-16T05:48:26.759Z,11.11
2017-09-16T05:49:26.754Z,11.45
2017-09-16T05:50:26.748Z,11.66
2017-09-16T05:51:26.743Z,11.77
2017-09-16T05:52:26.738Z,12.15
2017-09-16T05:53:26.734Z,12.25
2017-09-16T05:54:26.734Z,12.13
2017-09-16T05:55:26.724Z,11.88
2017-09-16T05:56:26.719Z,11.93
2017-09-16T05:57:26.715Z,12.25
2017-09-16T05:58:26.711Z,12.40
2017-09-16T05:59:26.706Z,12.54
2017-09-16T06:00:26.701Z,12.81
2017-09-16T06:01:26.700Z,13.17
2017-09-16T06:02:26.694Z,13.07
2017-09-16T06:03:26.689Z,13.21
2017-09-16T06:04:26.685Z,13.44
2017-09-16T06:05:26.683Z,13.88
2017-09-16T06:06:26.679Z,13.88
2017-09-16T06:07:26.676Z,14.36
2017-09-16T06:08:26.673Z,14.38
2017-09-16T06:09:26.669Z,15.03
2017-09-16T06:10:26.667Z,15.60
2017-09-16T06:11:26.664Z,15.95
2017-09-16T06:12:26.660Z,15.85
2017-09-16T06:13:26.660Z,15.85
2017-09-16T06:14:26.657Z,15.64
2017-09-16T06:15:26.662Z,15.68
2017-09-16T06:16:26.653Z,16.06
2017-09-16T06:17:26.652Z,16.48
2017-09-16T06:18:26.651Z,16.75
2017-09-16T06:19:26.648Z,16.81
2017-09-16T06:20:26.648Z,16.81
2017-09-16T06:21:26.647Z,16.63
2017-09-16T06:22:26.646Z,16.82
2017-09-16T06:23:26.645Z,16.66
2017-09-16T06:24:26.645Z,16.44
2017-09-16T06:25:26.645Z,16.67
2017-09-16T06:26:26.645Z,16.88
2017-09-16T06:27:26.643Z,16.78
2017-09-16T06:28:26.645Z,17.22
2017-09-16T06:29:26.643Z,17.25
2017-09-16T06:30:26.645Z,16.85
2017-09-16T06:31:26.644Z,16.81
2017-09-16T06:32:26.644Z,15.66
2017-09-16T06:33:26.646Z,14.79
2017-09-16T06:34:26.647Z,14.57
2017-09-16T06:35:26.647Z,14.80
2017-09-16T06:36:26.647Z,15.13
2017-09-16T06:37:26.649Z,15.96
2017-09-16T06:38:26.651Z,16.52
2017-09-16T06:39:26.648Z,17.36
2017-09-16T06:40:26.651Z,17.63
2017-09-16T06:41:26.652Z,17.24
2017-09-16T06:42:26.654Z,17.58
2017-09-16T06:43:26.654Z,17.60
2017-09-16T06:44:26.656Z,18.26
2017-09-16T06:45:26.656Z,18.50
2017-09-16T06:46:26.660Z,18.11
2017-09-16T06:47:26.659Z,18.31
2017-09-16T06:48:26.660Z,18.94
2017-09-16T06:49:26.665Z,19.43
2017-09-16T06:50:26.667Z,20.31
2017-09-16T06:51:26.668Z,19.98
2017-09-16T06:52:26.670Z,20.44
2017-09-16T06:53:26.675Z,20.54
2017-09-16T06:54:26.677Z,20.58
2017-09-16T06:55:26.678Z,19.62
2017-09-16T06:56:26.684Z,20.41
2017-09-16T06:57:26.687Z,20.98
2017-09-16T06:58:26.692Z,21.36
2017-09-16T06:59:26.693Z,21.96
2017-09-16T07:00:26.696Z,20.17
2017-09-16T07:01:26.701Z,20.63
2017-09-16T07:02:26.705Z,21.42
2017-09-16T07:03:26.709Z,21.24
2017-09-16T07:04:26.713Z,21.06
2017-09-16T07:05:26.718Z,19.43
2017-09-16T07:06:26.723Z,20.05
2017-09-16T07:07:26.727Z,19.58
2017-09-16T07:08:26.733Z,18.99
2017-09-16T07:09:26.737Z,19.46
2017-09-16T07:10:26.743Z,19.13
2017-09-16T07:11:26.749Z,19.71
2017-09-16T07:12:26.753Z,19.01
2017-09-16T07:13:26.759Z,19.23
2017-09-16T07:14:26.766Z,19.47
2017-09-16T07:15:26.770Z,20.00
2017-09-16T07:16:26.776Z,20.12
2017-09-16T07:17:26.782Z,18.47
2017-09-16T07:18:26.786Z,18.90
2017-09-16T07:19:26.793Z,19.71
2017-09-16T07:20:26.801Z,19.68
2017-09-16T07:21:26.806Z,20.68
2017-09-16T07:22:26.812Z,21.43
2017-09-16T07:23:26.817Z,21.37
2017-09-16T07:24:26.824Z,19.87
2017-09-16T07:25:26.830Z,19.52
2017-09-16T07:26:26.837Z,20.13
2017-09-16T07:27:26.843Z,20.54
2017-09-16T07:28:26.849Z,20.35
2017-09-16T07:29:26.855Z,21.03
2017-09-16T07:30:26.862Z,20.34
2017-09-16T07:31:26.869Z,20.13
2017-09-16T07:32:26.875Z,19.68
2017-09-16T07:33:26.881Z,19.72
2017-09-16T07:34:26.889Z,20.38
2017-09-16T07:35:26.895Z,21.22
2017-09-16T07:36:26.902Z,20.88
2017-09-16T07:37:26.909Z,20.78
2017-09-16T07:38:26.916Z,20.66
2017-09-16T07:39:26.922Z,20.15
2017-09-16T07:40:26.930Z,20.61
2017-09-16T07:41:26.936Z,21.22
2017-09-16T07:42:26.944Z,20.98
2017-09-16T07:43:26.951Z,20.85
2017-09-16T07:44:26.959Z,21.99
2017-09-16T07:45:26.967Z,23.18
2017-09-16T07:46:26.974Z,21.64
2017-09-16T07:47:26.980Z,21.53
2017-09-16T07:48:26.987Z,21.31
2017-09-16T07:49:26.997Z,20.94
2017-09-16T07:50:27.005Z,21.18
2017-09-16T07:51:27.012Z,22.15
2017-09-16T07:52:27.019Z,22.66
2017-09-16T07:53:27.028Z,22.56
2017-09-16T07:54:27.037Z,22.49
2017-09-16T07:55:27.044Z,23.03
2017-09-16T07:56:27.051Z,23.35
2017-09-16T07:57:27.061Z,24.23
2017-09-16T07:58:27.071Z,24.48
2017-09-16T07:59:27.082Z,25.14
2017-09-16T08:00:27.090Z,24.14
2017-09-16T08:01:27.097Z,24.99
2017-09-16T08:02:27.107Z,25.19
2017-09-16T08:03:27.115Z,24.80
2017-09-16T08:04:27.124Z,21.83
2017-09-16T08:05:27.135Z,20.46
2017-09-16T08:06:27.144Z,19.78
2017-09-16T08:07:27.170Z,19.46
2017-09-16T08:08:27.166Z,19.28
2017-09-16T08:09:27.172Z,19.05
2017-09-16T08:10:27.183Z,18.71
2017-09-16T08:11:27.190Z,18.69
2017-09-16T08:12:27.209Z,18.78
2017-09-16T08:13:27.208Z,18.53
2017-09-16T08:14:27.215Z,18.41
2017-09-16T08:15:27.224Z,18.64
2017-09-16T08:16:27.230Z,19.38
2017-09-16T08:17:27.239Z,20.04
2017-09-16T08:18:27.247Z,21.03
2017-09-16T08:19:27.254Z,21.13
2017-09-16T08:20:27.262Z,21.83
2017-09-16T08:21:27.269Z,20.73
2017-09-16T08:22:27.277Z,21.43
2017-09-16T08:23:27.285Z,21.73
2017-09-16T08:24:27.316Z,21.89
2017-09-16T08:25:27.300Z,21.11
2017-09-16T08:26:27.310Z,21.45
2017-09-16T08:27:27.316Z,21.43
2017-09-16T08:28:27.325Z,19.60
2017-09-16T08:29:27.333Z,19.25
2017-09-16T08:30:27.339Z,19.47
2017-09-16T08:31:27.347Z,19.76
2017-09-16T08:32:27.360Z,20.54
2017-09-16T08:33:27.363Z,20.38
2017-09-16T08:34:27.370Z,20.50
2017-09-16T08:35:27.384Z,20.66
2017-09-16T08:36:27.388Z,20.33
2017-09-16T08:37:27.481Z,21.52
2017-09-16T08:38:27.483Z,23.74
2017-09-16T08:39:27.408Z,23.99
2017-09-16T08:40:27.418Z,25.23
2017-09-16T08:41:27.426Z,24.68
2017-09-16T08:42:27.438Z,23.53
2017-09-16T08:43:27.440Z,22.81
2017-09-16T08:44:27.450Z,22.36
2017-09-16T08:45:27.463Z,23.71
2017-09-16T08:46:27.472Z,24.61
2017-09-16T08:47:27.477Z,24.06
2017-09-16T08:48:27.488Z,23.41
2017-09-16T08:49:27.502Z,23.93
2017-09-16T08:50:27.510Z,25.57
2017-09-16T08:51:27.522Z,26.76
2017-09-16T08:52:27.528Z,26.78
2017-09-16T08:53:27.541Z,26.54
2017-09-16T08:54:27.551Z,25.30
2017-09-16T08:55:27.562Z,25.39
2017-09-16T08:56:27.579Z,26.42
2017-09-16T08:57:27.585Z,25.76
2017-09-16T08:58:27.598Z,25.60
2017-09-16T08:59:27.609Z,25.74
2017-09-16T09:00:27.621Z,26.79
2017-09-16T09:01:27.635Z,27.20
2017-09-16T09:02:27.646Z,28.73
2017-09-16T09:03:27.659Z,28.73
2017-09-16T09:04:27.673Z,27.71
2017-09-16T09:05:27.684Z,25.83
2017-09-16T09:06:27.696Z,24.61
2017-09-16T09:07:27.709Z,23.39
2017-09-16T09:08:27.721Z,24.27
2017-09-16T09:09:27.735Z,25.30
2017-09-16T09:10:27.749Z,26.79
2017-09-16T09:11:27.760Z,27.65
2017-09-16T09:12:27.773Z,28.35
2017-09-16T09:13:27.786Z,29.71
2017-09-16T09:14:27.800Z,28.88
2017-09-16T09:15:27.812Z,28.23
2017-09-16T09:16:27.826Z,25.53
2017-09-16T09:17:27.840Z,23.92
2017-09-16T09:18:27.851Z,23.99
2017-09-16T09:19:27.865Z,24.98
2017-09-16T09:20:27.891Z,24.75
2017-09-16T09:21:27.891Z,25.85
2017-09-16T09:22:27.904Z,26.73
2017-09-16T09:23:27.916Z,26.38
2017-09-16T09:24:27.929Z,25.57
2017-09-16T09:25:27.942Z,24.77
2017-09-16T09:26:27.956Z,24.15
2017-09-16T09:27:27.967Z,25.61
2017-09-16T09:28:27.979Z,26.71
2017-09-16T09:29:27.992Z,24.14
2017-09-16T09:30:28.007Z,23.68
2017-09-16T09:31:28.017Z,23.59
2017-09-16T09:32:28.030Z,22.76
2017-09-16T09:33:28.043Z,22.85
2017-09-16T09:34:28.057Z,22.69
2017-09-16T09:35:28.065Z,22.38
2017-09-16T09:36:28.077Z,24.16
2017-09-16T09:37:28.089Z,24.37
2017-09-16T09:38:28.101Z,23.57
2017-09-16T09:39:28.110Z,23.41
2017-09-16T09:40:28.121Z,24.82
2017-09-16T09:41:28.131Z,27.05
2017-09-16T09:42:28.142Z,27.59
2017-09-16T09:43:28.152Z,24.67
2017-09-16T09:44:28.162Z,24.93
2017-09-16T09:45:28.172Z,25.02
2017-09-16T09:46:28.183Z,26.69
2017-09-16T09:47:28.192Z,27.02
2017-09-16T09:48:28.203Z,26.75
2017-09-16T09:49:28.220Z,26.17
2017-09-16T09:50:28.225Z,28.18
2017-09-16T09:51:28.235Z,29.67
2017-09-16T09:52:28.245Z,29.36
2017-09-16T09:53:28.257Z,28.82
2017-09-16T09:54:28.268Z,30.01
2017-09-16T09:55:28.278Z,30.78
2017-09-16T09:56:28.293Z,30.25
2017-09-16T09:57:28.306Z,29.45
2017-09-16T09:58:28.318Z,26.84
2017-09-16T09:59:28.328Z,23.25
2017-09-16T10:00:28.342Z,22.44
2017-09-16T10:01:28.356Z,22.67
2017-09-16T10:02:28.368Z,22.66
2017-09-16T10:03:28.380Z,22.35
2017-09-16T10:04:28.392Z,22.29
2017-09-16T10:05:28.562Z,22.01
2017-09-16T10:06:28.416Z,21.71
2017-09-16T10:07:28.426Z,22.41
2017-09-16T10:08:28.438Z,22.19
2017-09-16T10:09:28.448Z,22.11
2017-09-16T10:10:28.460Z,22.12
2017-09-16T10:11:28.467Z,23.54
2017-09-16T10:12:28.477Z,25.67
2017-09-16T10:13:28.486Z,25.69
2017-09-16T10:14:28.496Z,25.01
2017-09-16T10:15:28.504Z,24.77
2017-09-16T10:16:28.520Z,24.49
2017-09-16T10:17:28.521Z,24.39
2017-09-16T10:18:28.539Z,24.77
2017-09-16T10:19:28.536Z,25.26
2017-09-16T10:20:28.545Z,26.29
2017-09-16T10:21:28.553Z,27.11
2017-09-16T10:22:28.562Z,27.18
2017-09-16T10:24:28.579Z,27.93
2017-09-16T10:25:28.587Z,28.76
2017-09-16T10:26:28.595Z,29.33
2017-09-16T10:27:28.604Z,28.52
2017-09-16T10:28:28.614Z,27.86
2017-09-16T10:29:28.622Z,28.15
2017-09-16T10:30:28.632Z,29.11
2017-09-16T10:31:28.642Z,28.95
2017-09-16T10:32:28.651Z,27.49
2017-09-16T10:33:28.662Z,28.73
2017-09-16T10:34:28.673Z,28.73
2017-09-16T10:35:28.682Z,28.77
2017-09-16T10:36:28.694Z,28.92
2017-09-16T10:37:28.711Z,27.23
2017-09-16T10:38:28.718Z,26.86
2017-09-16T10:39:28.728Z,26.72
2017-09-16T10:40:28.739Z,26.53
2017-09-16T10:41:28.752Z,26.41
2017-09-16T10:42:28.762Z,26.27
2017-09-16T10:43:28.773Z,26.06
2017-09-16T10:44:28.785Z,25.89
2017-09-16T10:45:28.800Z,25.42
2017-09-16T10:46:28.805Z,25.41
2017-09-16T10:47:28.814Z,25.01
2017-09-16T10:48:28.825Z,24.56
2017-09-16T10:49:28.835Z,24.49
2017-09-16T10:50:28.846Z,24.42
2017-09-16T10:51:28.851Z,24.15
2017-09-16T10:52:28.865Z,23.89
2017-09-16T10:53:28.873Z,23.72
2017-09-16T10:54:28.877Z,23.60
2017-09-16T10:55:28.884Z,23.41
2017-09-16T10:56:28.890Z,23.23
2017-09-16T10:57:28.898Z,23.12
2017-09-16T10:58:28.906Z,22.93
2017-09-16T10:59:28.912Z,22.70
2017-09-16T11:00:28.917Z,22.48
2017-09-16T11:01:28.926Z,22.38
2017-09-16T11:02:28.931Z,22.29
2017-09-16T11:03:28.936Z,23.56
2017-09-16T11:04:28.941Z,25.04
2017-09-16T11:05:28.947Z,26.32
2017-09-16T11:06:28.954Z,26.60
2017-09-16T11:07:28.967Z,25.67
2017-09-16T11:08:28.967Z,24.84
2017-09-16T11:09:28.974Z,23.77
2017-09-16T11:10:28.980Z,23.42
2017-09-16T11:11:28.983Z,23.29
2017-09-16T11:12:28.991Z,23.16
2017-09-16T11:13:28.997Z,22.81
2017-09-16T11:14:29.003Z,22.88
2017-09-16T11:15:29.010Z,22.72
2017-09-16T11:16:29.016Z,22.70
2017-09-16T11:17:29.024Z,22.79
2017-09-16T11:18:29.026Z,22.64
2017-09-16T11:19:29.033Z,22.96
2017-09-16T11:20:29.037Z,23.59
2017-09-16T11:21:29.043Z,23.16
2017-09-16T11:22:29.050Z,22.96
2017-09-16T11:23:29.052Z,22.63
2017-09-16T11:24:29.060Z,22.36
2017-09-16T11:25:29.065Z,22.29
2017-09-16T11:26:29.072Z,22.31
2017-09-16T11:27:29.074Z,22.24
2017-09-16T11:28:29.079Z,22.26
2017-09-16T11:29:29.084Z,22.17
2017-09-16T11:30:29.092Z,21.94
2017-09-16T11:31:29.093Z,21.86
2017-09-16T11:32:29.098Z,21.89
2017-09-16T11:33:29.102Z,21.74
2017-09-16T11:34:29.107Z,21.66
2017-09-16T11:35:29.111Z,21.93
2017-09-16T11:36:29.114Z,21.99
2017-09-16T11:37:29.121Z,22.19
2017-09-16T11:38:29.125Z,22.20
2017-09-16T11:39:29.128Z,22.29
2017-09-16T11:40:29.133Z,22.33
2017-09-16T11:41:29.163Z,22.23
2017-09-16T11:42:29.141Z,22.26
2017-09-16T11:43:29.147Z,22.19
2017-09-16T11:44:29.148Z,22.12
2017-09-16T11:45:29.152Z,21.90
2017-09-16T11:46:29.158Z,21.61
2017-09-16T11:47:29.161Z,21.52
2017-09-16T11:48:29.166Z,21.40
2017-09-16T11:49:29.169Z,21.13
2017-09-16T11:50:29.174Z,21.36
2017-09-16T11:51:29.177Z,21.49
2017-09-16T11:52:29.181Z,21.66
2017-09-16T11:53:29.185Z,21.83
2017-09-16T11:54:29.189Z,22.05
2017-09-16T11:55:29.192Z,22.14
2017-09-16T11:56:29.196Z,22.09
2017-09-16T11:57:29.201Z,22.15
2017-09-16T11:58:29.205Z,22.17
2017-09-16T11:59:29.207Z,22.12
2017-09-16T12:00:29.212Z,22.02
2017-09-16T12:01:29.215Z,22.17
2017-09-16T12:02:29.219Z,22.20
2017-09-16T12:03:29.223Z,22.36
2017-09-16T12:04:29.226Z,22.57
2017-09-16T12:05:29.231Z,22.59
2017-09-16T12:06:29.234Z,22.67
2017-09-16T12:07:29.237Z,22.52
2017-09-16T12:08:29.243Z,22.61
2017-09-16T12:09:29.246Z,22.60
2017-09-16T12:10:29.250Z,22.35
2017-09-16T12:11:29.253Z,22.48
2017-09-16T12:12:29.256Z,22.60
2017-09-16T12:13:29.261Z,22.63
2017-09-16T12:14:29.264Z,22.66
2017-09-16T12:15:29.267Z,22.72
2017-09-16T12:16:29.272Z,22.86
2017-09-16T12:17:29.275Z,22.97
2017-09-16T12:18:29.280Z,22.88
2017-09-16T12:19:29.283Z,22.91
2017-09-16T12:20:29.288Z,22.49
2017-09-16T12:21:29.291Z,22.20
2017-09-16T12:22:29.295Z,22.15
2017-09-16T12:23:29.302Z,22.20
2017-09-16T12:24:29.305Z,22.36
2017-09-16T12:25:29.306Z,22.56
2017-09-16T12:26:29.309Z,22.59
2017-09-16T12:27:29.313Z,22.82
2017-09-16T12:28:29.317Z,22.66
2017-09-16T12:29:29.321Z,22.82
2017-09-16T12:30:29.325Z,22.97
2017-09-16T12:31:29.328Z,23.06
2017-09-16T12:32:29.332Z,23.25
2017-09-16T12:33:29.339Z,23.21
2017-09-16T12:34:29.340Z,21.58
2017-09-16T12:35:29.342Z,21.52
2017-09-16T12:36:29.347Z,21.52
2017-09-16T12:37:29.350Z,21.53
2017-09-16T12:38:29.354Z,21.94
2017-09-16T12:39:29.357Z,22.14
2017-09-16T12:40:29.362Z,22.21
2017-09-16T12:41:29.367Z,22.38
2017-09-16T12:42:29.369Z,22.35
2017-09-16T12:43:29.373Z,22.38
2017-09-16T12:44:29.377Z,22.29
2017-09-16T12:45:29.380Z,22.30
2017-09-16T12:46:29.384Z,22.36
2017-09-16T12:47:29.387Z,22.23
2017-09-16T12:48:29.391Z,22.21
2017-09-16T12:49:29.394Z,22.15
2017-09-16T12:50:29.398Z,22.04
2017-09-16T12:51:29.402Z,21.94
2017-09-16T12:52:29.405Z,21.96
2017-09-16T12:53:29.409Z,22.01
2017-09-16T12:54:29.412Z,22.06
2017-09-16T12:55:29.414Z,21.93
2017-09-16T12:56:29.419Z,21.98
2017-09-16T12:57:29.420Z,21.96
2017-09-16T12:58:29.425Z,21.89
2017-09-16T12:59:29.427Z,21.85
2017-09-16T13:00:29.435Z,21.96
2017-09-16T13:01:29.434Z,21.94